createdAt,value
2023-04-16T00:00:07.758Z,7.24
2023-04-16T00:01:07.981Z,7.30
2023-04-16T00:01:59.556Z,7.30
2023-04-16T00:02:51.289Z,7.29
2023-04-16T00:03:44.208Z,7.37
2023-04-16T00:04:36.051Z,7.38
2023-04-16T00:05:27.554Z,7.34
2023-04-16T00:06:23.061Z,7.39
2023-04-16T00:07:14.533Z,7.36
2023-04-16T00:08:06.085Z,7.37
2023-04-16T00:08:58.115Z,7.37
2023-04-16T00:09:50.783Z,7.38
2023-04-16T00:10:42.420Z,7.37
2023-04-16T00:11:33.862Z,7.40
2023-04-16T00:12:25.481Z,7.39
2023-04-16T00:13:19.391Z,7.37
2023-04-16T00:14:13.282Z,7.38
2023-04-16T00:15:06.336Z,7.34
2023-04-16T00:15:59.857Z,7.37
2023-04-16T00:16:51.456Z,7.38
2023-04-16T00:17:43.894Z,7.37
2023-04-16T00:18:37.705Z,7.40
2023-04-16T00:19:31.466Z,7.36
2023-04-16T00:20:22.831Z,7.37
2023-04-16T00:21:14.336Z,7.36
2023-04-16T00:22:05.847Z,7.32
2023-04-16T00:22:57.509Z,7.31
2023-04-16T00:23:48.874Z,7.35
2023-04-16T00:24:40.360Z,7.40
2023-04-16T00:25:31.852Z,7.42
2023-04-16T00:26:23.300Z,7.47
2023-04-16T00:27:17.609Z,7.43
2023-04-16T00:28:10.998Z,7.35
2023-04-16T00:29:02.668Z,7.37
2023-04-16T00:29:54.071Z,7.34
2023-04-16T00:30:45.718Z,7.41
2023-04-16T00:31:37.177Z,7.43
2023-04-16T00:32:28.648Z,7.43
2023-04-16T00:33:22.574Z,7.44
2023-04-16T00:34:14.036Z,7.40
2023-04-16T00:35:06.093Z,7.39
2023-04-16T00:35:57.606Z,7.40
2023-04-16T00:36:49.414Z,7.47
2023-04-16T00:37:40.895Z,7.47
2023-04-16T00:38:32.772Z,7.46
2023-04-16T00:39:24.599Z,7.46
2023-04-16T00:40:16.204Z,7.48
2023-04-16T00:41:09.671Z,7.46
2023-04-16T00:42:01.780Z,7.46
2023-04-16T00:42:54.033Z,7.45
2023-04-16T00:43:45.663Z,7.47
2023-04-16T00:44:37.366Z,7.45
2023-04-16T00:45:29.018Z,7.45
2023-04-16T00:46:23.285Z,7.45
2023-04-16T00:47:15.188Z,7.43
2023-04-16T00:48:06.808Z,7.41
2023-04-16T00:49:01.676Z,7.45
2023-04-16T00:49:54.371Z,7.50
2023-04-16T00:50:45.972Z,7.50
2023-04-16T00:51:37.459Z,7.46
2023-04-16T00:52:29.540Z,7.45
2023-04-16T00:53:21.157Z,7.41
2023-04-16T00:54:12.714Z,7.41
2023-04-16T00:55:07.579Z,7.41
2023-04-16T00:56:02.197Z,7.43
2023-04-16T00:56:53.747Z,7.46
2023-04-16T00:57:45.899Z,7.45
2023-04-16T00:58:37.937Z,7.49
2023-04-16T00:59:29.490Z,7.48
2023-04-16T01:00:21.513Z,7.44
2023-04-16T01:01:14.463Z,7.45
2023-04-16T01:02:06.189Z,7.44
2023-04-16T01:03:00.267Z,7.44
2023-04-16T01:03:51.882Z,7.45
2023-04-16T01:04:43.820Z,7.41
2023-04-16T01:05:36.705Z,7.39
2023-04-16T01:06:28.139Z,7.39
2023-04-16T01:07:20.616Z,7.39
2023-04-16T01:08:17.709Z,7.39
2023-04-16T01:09:11.724Z,7.37
2023-04-16T01:10:04.050Z,7.40
2023-04-16T01:10:55.464Z,7.41
2023-04-16T01:11:46.919Z,7.41
2023-04-16T01:12:38.469Z,7.41
2023-04-16T01:13:30.784Z,7.41
2023-04-16T01:14:22.219Z,7.42
2023-04-16T01:15:14.218Z,7.44
2023-04-16T01:16:07.899Z,7.43
2023-04-16T01:16:59.742Z,7.41
2023-04-16T01:17:51.216Z,7.44
2023-04-16T01:18:42.937Z,7.43
2023-04-16T01:19:38.411Z,7.43
2023-04-16T01:20:29.853Z,7.41
2023-04-16T01:21:21.534Z,7.41
2023-04-16T01:22:13.110Z,7.45
2023-04-16T01:23:04.584Z,7.46
2023-04-16T01:23:57.209Z,7.44
2023-04-16T01:24:48.674Z,7.41
2023-04-16T01:25:40.881Z,7.41
2023-04-16T01:26:33.692Z,7.43
2023-04-16T01:27:25.195Z,7.43
2023-04-16T01:28:17.008Z,7.44
2023-04-16T01:29:11.355Z,7.44
2023-04-16T01:30:03.111Z,7.46
2023-04-16T01:31:07.406Z,7.45
2023-04-16T01:32:26.092Z,7.46
2023-04-16T01:33:19.070Z,7.46
2023-04-16T01:34:10.564Z,7.49
2023-04-16T01:35:01.999Z,7.51
2023-04-16T01:35:53.625Z,7.50
2023-04-16T01:36:45.502Z,7.51
2023-04-16T01:37:36.958Z,7.51
2023-04-16T01:38:28.380Z,7.52
2023-04-16T01:39:19.777Z,7.55
2023-04-16T01:40:11.631Z,7.52
2023-04-16T01:41:03.194Z,7.49
2023-04-16T01:41:54.615Z,7.50
2023-04-16T01:42:46.063Z,7.51
2023-04-16T01:43:40.044Z,7.52
2023-04-16T01:44:31.794Z,7.54
2023-04-16T01:45:26.099Z,7.51
2023-04-16T01:46:36.224Z,7.50
2023-04-16T01:47:27.999Z,7.50
2023-04-16T01:48:19.706Z,7.52
2023-04-16T01:49:11.733Z,7.52
2023-04-16T01:50:04.065Z,7.52
2023-04-16T01:50:55.822Z,7.51
2023-04-16T01:51:48.907Z,7.54
2023-04-16T01:52:40.477Z,7.57
2023-04-16T01:53:32.073Z,7.53
2023-04-16T01:54:23.806Z,7.53
2023-04-16T01:55:15.724Z,7.51
2023-04-16T01:56:07.529Z,7.49
2023-04-16T01:56:59.193Z,7.54
2023-04-16T01:57:50.784Z,7.53
2023-04-16T01:58:42.804Z,7.54
2023-04-16T01:59:34.285Z,7.54
2023-04-16T02:00:25.903Z,7.53
2023-04-16T02:01:18.262Z,7.53
2023-04-16T02:02:12.600Z,7.52
2023-04-16T02:03:04.663Z,7.53
2023-04-16T02:03:57.629Z,7.54
2023-04-16T02:04:49.201Z,7.52
2023-04-16T02:05:43.034Z,7.52
2023-04-16T02:06:34.445Z,7.53
2023-04-16T02:07:27.333Z,7.44
2023-04-16T02:08:18.995Z,7.44
2023-04-16T02:09:11.800Z,7.44
2023-04-16T02:10:06.552Z,7.50
2023-04-16T02:11:00.768Z,7.53
2023-04-16T02:11:52.500Z,7.52
2023-04-16T02:12:44.316Z,7.55
2023-04-16T02:13:36.986Z,7.54
2023-04-16T02:14:30.019Z,7.56
2023-04-16T02:15:21.681Z,7.60
2023-04-16T02:16:13.248Z,7.59
2023-04-16T02:17:12.346Z,7.54
2023-04-16T02:18:06.029Z,7.51
2023-04-16T02:18:57.923Z,7.50
2023-04-16T02:19:53.057Z,7.48
2023-04-16T02:20:47.030Z,7.47
2023-04-16T02:21:39.554Z,7.48
2023-04-16T02:22:31.009Z,7.52
2023-04-16T02:23:22.464Z,7.52
2023-04-16T02:24:13.871Z,7.49
2023-04-16T02:25:08.841Z,7.48
2023-04-16T02:26:01.274Z,7.52
2023-04-16T02:26:54.430Z,7.54
2023-04-16T02:27:46.154Z,7.54
2023-04-16T02:28:48.624Z,7.49
2023-04-16T02:29:41.766Z,7.47
2023-04-16T02:30:39.934Z,7.49
2023-04-16T02:31:32.066Z,7.57
2023-04-16T02:32:23.621Z,7.51
2023-04-16T02:33:16.614Z,7.50
2023-04-16T02:34:18.656Z,7.48
2023-04-16T02:35:12.800Z,7.47
2023-04-16T02:36:04.611Z,7.48
2023-04-16T02:36:58.252Z,7.46
2023-04-16T02:37:49.806Z,7.47
2023-04-16T02:38:41.414Z,7.48
2023-04-16T02:39:33.388Z,7.50
2023-04-16T02:40:25.630Z,7.51
2023-04-16T02:41:17.314Z,7.53
2023-04-16T02:42:08.764Z,7.56
2023-04-16T02:43:01.532Z,7.49
2023-04-16T02:43:53.207Z,7.51
2023-04-16T02:44:44.709Z,7.48
2023-04-16T02:45:36.221Z,7.47
2023-04-16T02:46:28.029Z,7.47
2023-04-16T02:47:19.616Z,7.50
2023-04-16T02:48:11.205Z,7.49
2023-04-16T02:49:02.738Z,7.44
2023-04-16T02:49:54.188Z,7.45
2023-04-16T02:50:48.192Z,7.40
2023-04-16T02:51:39.615Z,7.45
2023-04-16T02:52:32.222Z,7.46
2023-04-16T02:53:23.757Z,7.51
2023-04-16T02:54:15.510Z,7.52
2023-04-16T02:55:07.322Z,7.47
2023-04-16T02:55:58.832Z,7.45
2023-04-16T02:56:52.305Z,7.44
2023-04-16T02:57:43.897Z,7.43
2023-04-16T02:58:35.581Z,7.45
2023-04-16T02:59:28.293Z,7.45
2023-04-16T03:00:19.842Z,7.47
2023-04-16T03:01:11.562Z,7.49
2023-04-16T03:02:03.445Z,7.54
2023-04-16T03:02:55.373Z,7.46
2023-04-16T03:03:47.017Z,7.48
2023-04-16T03:04:38.687Z,7.47
2023-04-16T03:05:30.323Z,7.45
2023-04-16T03:06:21.776Z,7.48
2023-04-16T03:07:13.899Z,7.46
2023-04-16T03:08:08.745Z,7.43
2023-04-16T03:09:00.431Z,7.45
2023-04-16T03:09:51.963Z,7.39
2023-04-16T03:10:43.428Z,7.39
2023-04-16T03:11:34.847Z,7.38
2023-04-16T03:12:26.254Z,7.39
2023-04-16T03:13:17.785Z,7.39
2023-04-16T03:14:09.607Z,7.35
2023-04-16T03:15:01.107Z,7.40
2023-04-16T03:15:52.690Z,7.46
2023-04-16T03:16:44.369Z,7.41
2023-04-16T03:17:35.963Z,7.45
2023-04-16T03:18:27.637Z,7.44
2023-04-16T03:19:19.462Z,7.43
2023-04-16T03:20:11.268Z,7.40
2023-04-16T03:21:06.199Z,7.38
2023-04-16T03:21:57.634Z,7.38
2023-04-16T03:22:49.586Z,7.38
2023-04-16T03:23:41.212Z,7.38
2023-04-16T03:24:33.100Z,7.46
2023-04-16T03:25:24.507Z,7.43
2023-04-16T03:26:16.400Z,7.39
2023-04-16T03:27:07.839Z,7.41
2023-04-16T03:27:59.319Z,7.44
2023-04-16T03:28:50.768Z,7.42
2023-04-16T03:29:42.401Z,7.43
2023-04-16T03:30:36.861Z,7.42
2023-04-16T03:31:28.523Z,7.41
2023-04-16T03:32:20.090Z,7.41
2023-04-16T03:33:11.778Z,7.41
2023-04-16T03:34:04.958Z,7.46
2023-04-16T03:34:57.129Z,7.43
2023-04-16T03:35:57.784Z,7.48
2023-04-16T03:36:53.687Z,7.50
2023-04-16T03:37:45.212Z,7.45
2023-04-16T03:38:36.684Z,7.44
2023-04-16T03:39:28.494Z,7.47
2023-04-16T03:40:20.049Z,7.44
2023-04-16T03:41:11.725Z,7.43
2023-04-16T03:42:03.833Z,7.40
2023-04-16T03:42:55.615Z,7.37
2023-04-16T03:43:47.104Z,7.40
2023-04-16T03:44:38.773Z,7.41
2023-04-16T03:45:30.563Z,7.40
2023-04-16T03:46:23.265Z,7.38
2023-04-16T03:47:16.289Z,7.43
2023-04-16T03:48:11.474Z,7.40
2023-04-16T03:49:03.008Z,7.34
2023-04-16T03:49:54.435Z,7.38
2023-04-16T03:50:48.444Z,7.38
2023-04-16T03:51:41.823Z,7.39
2023-04-16T03:52:33.388Z,7.41
2023-04-16T03:53:25.316Z,7.45
2023-04-16T03:54:16.976Z,7.45
2023-04-16T03:55:14.855Z,7.44
2023-04-16T03:56:06.745Z,7.41
2023-04-16T03:56:58.413Z,7.42
2023-04-16T03:57:50.278Z,7.39
2023-04-16T03:58:42.826Z,7.40
2023-04-16T03:59:34.298Z,7.43
2023-04-16T04:00:26.020Z,7.45
2023-04-16T04:01:27.774Z,7.48
2023-04-16T04:02:20.804Z,7.48
2023-04-16T04:03:13.681Z,7.46
2023-04-16T04:04:07.423Z,7.45
2023-04-16T04:04:59.004Z,7.44
2023-04-16T04:05:50.526Z,7.46
2023-04-16T04:06:48.858Z,7.47
2023-04-16T04:07:40.377Z,7.43
2023-04-16T04:08:31.921Z,7.45
2023-04-16T04:09:23.379Z,7.41
2023-04-16T04:10:15.601Z,7.36
2023-04-16T04:11:07.523Z,7.39
2023-04-16T04:12:00.744Z,7.38
2023-04-16T04:12:53.091Z,7.36
2023-04-16T04:13:46.511Z,7.38
2023-04-16T04:14:39.904Z,7.39
2023-04-16T04:15:32.271Z,7.43
2023-04-16T04:16:23.760Z,7.45
2023-04-16T04:17:16.755Z,7.44
2023-04-16T04:18:08.249Z,7.45
2023-04-16T04:19:10.101Z,7.45
2023-04-16T04:20:02.267Z,7.43
2023-04-16T04:20:55.830Z,7.47
2023-04-16T04:21:51.593Z,7.45
2023-04-16T04:22:43.037Z,7.46
2023-04-16T04:23:36.914Z,7.51
2023-04-16T04:24:29.532Z,7.52
2023-04-16T04:25:22.255Z,7.54
2023-04-16T04:26:13.678Z,7.54
2023-04-16T04:27:07.012Z,7.57
2023-04-16T04:27:58.482Z,7.59
2023-04-16T04:28:49.923Z,7.59
2023-04-16T04:29:42.766Z,7.59
2023-04-16T04:30:35.744Z,7.52
2023-04-16T04:31:27.872Z,7.52
2023-04-16T04:32:20.688Z,7.53
2023-04-16T04:33:14.088Z,7.55
2023-04-16T04:34:06.580Z,7.50
2023-04-16T04:35:00.238Z,7.51
2023-04-16T04:35:52.098Z,7.50
2023-04-16T04:36:47.335Z,7.51
2023-04-16T04:37:39.641Z,7.52
2023-04-16T04:38:38.792Z,7.52
2023-04-16T04:39:31.742Z,7.49
2023-04-16T04:40:23.590Z,7.47
2023-04-16T04:41:17.485Z,7.49
2023-04-16T04:42:09.607Z,7.50
2023-04-16T04:43:03.578Z,7.49
2023-04-16T04:43:55.228Z,7.52
2023-04-16T04:44:47.306Z,7.52
2023-04-16T04:45:39.073Z,7.49
2023-04-16T04:46:30.806Z,7.53
2023-04-16T04:47:22.293Z,7.57
2023-04-16T04:48:13.821Z,7.55
2023-04-16T04:49:05.650Z,7.59
2023-04-16T04:49:57.165Z,7.63
2023-04-16T04:50:48.863Z,7.55
2023-04-16T04:51:42.809Z,7.61
2023-04-16T04:52:35.977Z,7.62
2023-04-16T04:53:27.931Z,7.61
2023-04-16T04:54:19.794Z,7.66
2023-04-16T04:55:11.503Z,7.65
2023-04-16T04:56:12.143Z,7.66
2023-04-16T04:57:04.556Z,7.64
2023-04-16T04:57:56.283Z,7.61
2023-04-16T04:58:50.795Z,7.61
2023-04-16T04:59:44.093Z,7.60
2023-04-16T05:00:37.181Z,7.60
2023-04-16T05:01:28.660Z,7.64
2023-04-16T05:02:20.387Z,7.65
2023-04-16T05:03:12.552Z,7.62
2023-04-16T05:04:04.411Z,7.67
2023-04-16T05:04:56.116Z,7.63
2023-04-16T05:05:47.814Z,7.62
2023-04-16T05:06:39.594Z,7.59
2023-04-16T05:07:31.600Z,7.60
2023-04-16T05:08:23.074Z,7.60
2023-04-16T05:09:14.471Z,7.60
2023-04-16T05:10:06.595Z,7.60
2023-04-16T05:11:00.263Z,7.63
2023-04-16T05:11:52.056Z,7.64
2023-04-16T05:12:43.540Z,7.69
2023-04-16T05:13:34.881Z,7.69
2023-04-16T05:14:26.285Z,7.66
2023-04-16T05:15:17.989Z,7.67
2023-04-16T05:16:09.583Z,7.73
2023-04-16T05:17:03.528Z,7.73
2023-04-16T05:17:56.164Z,7.75
2023-04-16T05:18:49.038Z,7.74
2023-04-16T05:19:40.470Z,7.73
2023-04-16T05:20:32.019Z,7.74
2023-04-16T05:21:24.091Z,7.79
2023-04-16T05:22:18.773Z,7.81
2023-04-16T05:23:10.465Z,7.81
2023-04-16T05:24:02.900Z,7.83
2023-04-16T05:24:54.329Z,7.81
2023-04-16T05:25:48.331Z,7.80
2023-04-16T05:26:39.804Z,7.81
2023-04-16T05:27:31.509Z,7.81
2023-04-16T05:28:22.912Z,7.80
2023-04-16T05:29:14.497Z,7.78
2023-04-16T05:30:06.641Z,7.84
2023-04-16T05:30:58.147Z,7.87
2023-04-16T05:31:51.993Z,7.87
2023-04-16T05:32:43.441Z,7.83
2023-04-16T05:33:35.144Z,7.82
2023-04-16T05:34:26.622Z,7.80
2023-04-16T05:35:18.042Z,7.81
2023-04-16T05:36:09.557Z,7.77
2023-04-16T05:37:01.400Z,7.82
2023-04-16T05:37:55.116Z,7.82
2023-04-16T05:38:46.823Z,7.82
2023-04-16T05:39:38.193Z,7.85
2023-04-16T05:40:29.857Z,7.82
2023-04-16T05:41:21.501Z,7.84
2023-04-16T05:42:12.872Z,7.90
2023-04-16T05:43:04.547Z,7.90
2023-04-16T05:43:58.280Z,7.89
2023-04-16T05:44:50.892Z,7.88
2023-04-16T05:45:44.197Z,7.95
2023-04-16T05:46:35.814Z,7.93
2023-04-16T05:47:27.299Z,7.99
2023-04-16T05:48:20.003Z,8.02
2023-04-16T05:49:11.648Z,7.96
2023-04-16T05:50:03.414Z,7.96
2023-04-16T05:50:54.797Z,7.96
2023-04-16T05:51:46.599Z,7.94
2023-04-16T05:52:38.681Z,7.99
2023-04-16T05:53:30.500Z,7.97
2023-04-16T05:54:23.375Z,7.96
2023-04-16T05:55:14.830Z,7.95
2023-04-16T05:56:06.771Z,7.95
2023-04-16T05:56:58.194Z,7.92
2023-04-16T05:57:49.838Z,7.88
2023-04-16T05:58:41.318Z,7.88
2023-04-16T05:59:33.133Z,7.90
2023-04-16T06:00:25.488Z,7.91
2023-04-16T06:01:18.436Z,7.90
2023-04-16T06:02:10.048Z,7.92
2023-04-16T06:03:02.743Z,7.94
2023-04-16T06:03:54.795Z,8.01
2023-04-16T06:04:46.332Z,7.98
2023-04-16T06:05:37.800Z,7.97
2023-04-16T06:06:29.490Z,8.01
2023-04-16T06:07:20.891Z,8.01
2023-04-16T06:08:12.317Z,7.98
2023-04-16T06:09:06.086Z,7.99
2023-04-16T06:09:57.797Z,7.96
2023-04-16T06:10:49.526Z,7.99
2023-04-16T06:11:41.337Z,7.99
2023-04-16T06:12:32.829Z,8.05
2023-04-16T06:13:24.901Z,8.05
2023-04-16T06:14:16.365Z,8.05
2023-04-16T06:15:08.480Z,8.07
2023-04-16T06:16:01.223Z,8.04
2023-04-16T06:16:52.743Z,8.03
2023-04-16T06:17:44.406Z,8.04
2023-04-16T06:18:36.604Z,7.99
2023-04-16T06:19:27.966Z,7.98
2023-04-16T06:20:19.337Z,7.96
2023-04-16T06:21:10.826Z,7.99
2023-04-16T06:22:02.453Z,8.04
2023-04-16T06:22:56.548Z,8.08
2023-04-16T06:23:48.351Z,8.12
2023-04-16T06:24:40.063Z,8.16
2023-04-16T06:25:31.588Z,8.18
2023-04-16T06:26:23.089Z,8.18
2023-04-16T06:27:14.510Z,8.22
2023-04-16T06:28:05.991Z,8.19
2023-04-16T06:28:57.449Z,8.17
2023-04-16T06:29:49.267Z,8.12
2023-04-16T06:30:42.804Z,8.09
2023-04-16T06:31:36.135Z,8.06
2023-04-16T06:32:27.859Z,8.07
2023-04-16T06:33:19.442Z,8.06
2023-04-16T06:34:10.993Z,8.07
2023-04-16T06:35:04.317Z,8.07
2023-04-16T06:35:58.228Z,8.09
2023-04-16T06:36:49.573Z,8.13
2023-04-16T06:37:41.578Z,8.11
2023-04-16T06:38:32.995Z,8.09
2023-04-16T06:39:24.440Z,8.11
2023-04-16T06:40:18.677Z,8.16
2023-04-16T06:41:10.497Z,8.20
2023-04-16T06:42:02.385Z,8.23
2023-04-16T06:42:54.297Z,8.19
2023-04-16T06:43:48.231Z,8.21
2023-04-16T06:44:39.590Z,8.22
2023-04-16T06:45:31.296Z,8.20
2023-04-16T06:46:22.763Z,8.20
2023-04-16T06:47:14.315Z,8.22
2023-04-16T06:48:05.947Z,8.18
2023-04-16T06:48:57.647Z,8.24
2023-04-16T06:49:49.065Z,8.21
2023-04-16T06:50:44.114Z,8.23
2023-04-16T06:51:35.699Z,8.24
2023-04-16T06:52:27.208Z,8.21
2023-04-16T06:53:18.812Z,8.25
2023-04-16T06:54:10.372Z,8.28
2023-04-16T06:55:02.548Z,8.28
2023-04-16T06:55:56.072Z,8.28
2023-04-16T06:56:47.777Z,8.31
2023-04-16T06:57:40.595Z,8.31
2023-04-16T06:58:33.050Z,8.38
2023-04-16T06:59:24.742Z,8.33
2023-04-16T07:00:16.536Z,8.35
2023-04-16T07:01:08.024Z,8.36
2023-04-16T07:01:59.632Z,8.35
2023-04-16T07:02:51.405Z,8.37
2023-04-16T07:03:43.278Z,8.42
2023-04-16T07:04:34.818Z,8.48
2023-04-16T07:05:28.827Z,8.48
2023-04-16T07:06:20.468Z,8.48
2023-04-16T07:07:12.967Z,8.52
2023-04-16T07:08:04.418Z,8.54
2023-04-16T07:08:55.961Z,8.53
2023-04-16T07:09:47.356Z,8.52
2023-04-16T07:10:38.988Z,8.46
2023-04-16T07:11:30.702Z,8.49
2023-04-16T07:12:23.172Z,8.46
2023-04-16T07:13:27.830Z,8.50
2023-04-16T07:14:30.486Z,8.41
2023-04-16T07:15:25.710Z,8.42
2023-04-16T07:16:21.001Z,8.53
2023-04-16T07:17:15.765Z,8.53
2023-04-16T07:18:07.982Z,8.54
2023-04-16T07:19:03.497Z,8.54
2023-04-16T07:19:55.768Z,8.47
2023-04-16T07:20:50.825Z,8.48
2023-04-16T07:21:43.993Z,8.43
2023-04-16T07:22:40.091Z,8.43
2023-04-16T07:23:36.695Z,8.47
2023-04-16T07:24:33.571Z,8.37
2023-04-16T07:25:29.304Z,8.40
2023-04-16T07:26:23.610Z,8.41
2023-04-16T07:27:26.266Z,8.39
2023-04-16T07:28:18.598Z,8.42
2023-04-16T07:29:16.658Z,8.50
2023-04-16T07:30:09.374Z,8.54
2023-04-16T07:31:02.422Z,8.56
2023-04-16T07:31:54.438Z,8.55
2023-04-16T07:32:51.806Z,8.59
2023-04-16T07:33:44.109Z,8.65
2023-04-16T07:34:38.824Z,8.67
2023-04-16T07:35:41.049Z,8.75
2023-04-16T07:36:38.740Z,8.78
2023-04-16T07:37:34.241Z,8.83
2023-04-16T07:38:32.027Z,8.88
2023-04-16T07:44:00.672Z,9.09
2023-04-16T07:44:55.124Z,9.13
2023-04-16T07:45:50.196Z,9.22
2023-04-16T07:46:47.325Z,9.29
2023-04-16T07:47:43.008Z,9.26
2023-04-16T07:48:34.993Z,9.33
2023-04-16T07:49:27.637Z,9.35
2023-04-16T07:50:22.000Z,9.32
2023-04-16T07:51:16.216Z,9.27
2023-04-16T07:52:10.386Z,9.37
2023-04-16T07:53:05.168Z,9.46
2023-04-16T07:54:07.164Z,9.57
2023-04-16T07:54:59.619Z,9.66
2023-04-16T07:55:51.958Z,9.72
2023-04-16T07:56:44.887Z,9.73
2023-04-16T07:57:40.505Z,9.76
2023-04-16T07:58:32.723Z,9.75
2023-04-16T07:59:24.797Z,9.73
2023-04-16T08:00:19.238Z,9.83
2023-04-16T08:01:31.635Z,9.83
2023-04-16T08:02:45.172Z,10.01
2023-04-16T08:05:20.111Z,10.08
2023-04-16T08:06:16.245Z,10.03
2023-04-16T08:07:08.668Z,9.79
2023-04-16T08:08:04.103Z,9.80
2023-04-16T08:08:56.812Z,9.86
2023-04-16T08:09:55.022Z,9.91
2023-04-16T08:10:46.801Z,9.95
2023-04-16T08:11:41.933Z,9.97
2023-04-16T08:12:33.509Z,9.95
2023-04-16T08:13:24.914Z,9.94
2023-04-16T08:14:17.135Z,9.94
2023-04-16T08:15:11.061Z,9.92
2023-04-16T08:16:02.669Z,9.90
2023-04-16T08:16:54.349Z,9.91
2023-04-16T08:17:45.895Z,9.93
2023-04-16T08:18:39.417Z,9.78
2023-04-16T08:19:31.158Z,9.76
2023-04-16T08:20:27.997Z,9.81
2023-04-16T08:21:19.796Z,9.82
2023-04-16T08:22:14.138Z,9.83
2023-04-16T08:23:06.254Z,9.80
2023-04-16T08:23:58.095Z,9.83
2023-04-16T08:24:53.440Z,9.77
2023-04-16T08:25:48.348Z,9.72
2023-04-16T08:26:40.444Z,9.80
2023-04-16T08:27:32.040Z,9.78
2023-04-16T08:28:25.873Z,9.74
2023-04-16T08:29:17.613Z,9.76
2023-04-16T08:30:09.332Z,9.73
2023-04-16T08:31:00.911Z,9.79
2023-04-16T08:31:54.226Z,9.78
2023-04-16T08:32:48.686Z,9.78
2023-04-16T08:33:42.316Z,9.72
2023-04-16T08:34:34.498Z,9.77
2023-04-16T08:35:27.954Z,9.82
2023-04-16T08:36:22.541Z,9.86
2023-04-16T08:37:14.707Z,9.84
2023-04-16T08:38:07.380Z,9.82
2023-04-16T08:38:59.410Z,9.83
2023-04-16T08:39:50.935Z,9.80
2023-04-16T08:40:43.303Z,9.86
2023-04-16T08:41:38.452Z,9.95
2023-04-16T08:42:41.723Z,9.97
2023-04-16T08:43:37.912Z,10.03
2023-04-16T08:44:37.468Z,10.04
2023-04-16T08:45:31.087Z,10.08
2023-04-16T08:46:26.110Z,10.09
2023-04-16T08:47:19.675Z,10.08
2023-04-16T08:48:14.319Z,10.10
2023-04-16T08:49:08.203Z,10.12
2023-04-16T08:50:00.838Z,10.13
2023-04-16T08:50:54.998Z,10.13
2023-04-16T08:51:52.180Z,10.11
2023-04-16T08:52:52.427Z,10.14
2023-04-16T08:53:53.581Z,10.22
2023-04-16T08:55:06.192Z,10.24
2023-04-16T08:56:02.190Z,10.22
2023-04-16T08:56:55.577Z,10.17
2023-04-16T08:57:58.574Z,10.17
2023-04-16T08:58:51.275Z,10.21
2023-04-16T08:59:47.016Z,10.19
2023-04-16T09:00:41.188Z,10.13
2023-04-16T09:01:33.930Z,10.11
2023-04-16T09:02:29.682Z,10.14
2023-04-16T09:03:22.164Z,10.20
2023-04-16T09:04:15.800Z,10.21
2023-04-16T09:05:09.400Z,10.22
2023-04-16T09:06:04.039Z,10.27
2023-04-16T09:06:57.525Z,10.26
2023-04-16T09:07:48.985Z,10.38
2023-04-16T09:08:43.790Z,10.49
2023-04-16T09:09:37.809Z,10.57
2023-04-16T09:10:29.349Z,10.66
2023-04-16T09:11:21.283Z,10.68
2023-04-16T09:12:13.240Z,10.68
2023-04-16T09:13:04.734Z,10.63
2023-04-16T09:13:57.190Z,10.67
2023-04-16T09:14:49.913Z,10.74
2023-04-16T09:15:42.676Z,10.86
2023-04-16T09:16:34.450Z,10.94
2023-04-16T09:17:28.112Z,11.05
2023-04-16T09:18:26.014Z,11.12
2023-04-16T09:19:17.398Z,11.26
2023-04-16T09:20:11.146Z,11.30
2023-04-16T09:21:05.261Z,11.41
2023-04-16T09:22:01.580Z,11.36
2023-04-16T09:22:53.361Z,11.38
2023-04-16T09:23:45.567Z,11.33
2023-04-16T09:24:38.750Z,11.28
2023-04-16T09:25:37.352Z,11.27
2023-04-16T09:26:29.318Z,11.24
2023-04-16T09:27:25.366Z,11.21
2023-04-16T09:28:43.542Z,11.08
2023-04-16T09:29:37.461Z,10.97
2023-04-16T09:30:28.946Z,11.01
2023-04-16T09:31:20.540Z,10.91
2023-04-16T09:32:13.628Z,10.91
2023-04-16T09:33:22.633Z,10.94
2023-04-16T09:34:14.542Z,10.95
2023-04-16T09:35:06.229Z,10.93
2023-04-16T09:36:02.655Z,10.93
2023-04-16T09:36:54.314Z,10.89
2023-04-16T09:37:56.823Z,10.91
2023-04-16T09:38:50.784Z,10.85
2023-04-16T09:39:56.699Z,10.82
2023-04-16T09:40:48.397Z,10.77
2023-04-16T09:41:40.798Z,10.77
2023-04-16T09:42:41.012Z,10.74
2023-04-16T09:43:32.490Z,10.78
2023-04-16T09:44:35.427Z,10.74
2023-04-16T09:45:32.022Z,10.78
2023-04-16T09:46:44.480Z,10.78
2023-04-16T09:47:41.551Z,10.69
2023-04-16T09:48:34.473Z,10.73
2023-04-16T09:49:26.694Z,10.71
2023-04-16T09:50:20.494Z,10.69
2023-04-16T09:51:12.018Z,10.71
2023-04-16T09:52:19.118Z,10.77
2023-04-16T09:53:10.528Z,10.75
2023-04-16T09:54:05.080Z,10.74
2023-04-16T09:54:56.492Z,10.74
2023-04-16T09:55:48.140Z,10.71
2023-04-16T09:56:42.012Z,10.70
2023-04-16T09:57:36.817Z,10.67
2023-04-16T09:58:29.240Z,10.67
2023-04-16T09:59:22.872Z,10.66
2023-04-16T10:00:19.309Z,10.68
2023-04-16T10:01:12.890Z,10.62
2023-04-16T10:02:14.906Z,10.66
2023-04-16T10:03:07.944Z,10.69
2023-04-16T10:03:59.737Z,10.74
2023-04-16T10:04:55.192Z,10.74
2023-04-16T10:05:46.699Z,10.77
2023-04-16T10:06:38.428Z,10.75
2023-04-16T10:07:33.998Z,10.71
2023-04-16T10:08:25.620Z,10.72
2023-04-16T10:09:19.205Z,10.71
2023-04-16T10:10:11.219Z,10.71
2023-04-16T10:11:02.947Z,10.78
2023-04-16T10:11:54.518Z,10.88
2023-04-16T10:12:46.018Z,11.03
2023-04-16T10:13:37.723Z,11.08
2023-04-16T10:14:29.529Z,11.09
2023-04-16T10:15:22.434Z,11.14
2023-04-16T10:16:16.354Z,11.21
2023-04-16T10:17:09.583Z,11.19
2023-04-16T10:18:03.275Z,11.29
2023-04-16T10:18:56.672Z,11.38
2023-04-16T10:19:48.253Z,11.45
2023-04-16T10:20:42.460Z,11.53
2023-04-16T10:21:34.517Z,11.60
2023-04-16T10:22:26.564Z,11.59
2023-04-16T10:23:21.105Z,11.61
2023-04-16T10:24:17.401Z,11.64
2023-04-16T10:25:10.833Z,11.68
2023-04-16T10:26:02.721Z,11.64
2023-04-16T10:26:55.302Z,11.60
2023-04-16T10:27:48.036Z,11.64
2023-04-16T10:28:40.749Z,11.68
2023-04-16T10:29:34.637Z,11.69
2023-04-16T10:30:27.692Z,11.66
2023-04-16T10:31:20.083Z,11.71
2023-04-16T10:32:12.896Z,11.79
2023-04-16T10:33:08.152Z,11.84
2023-04-16T10:34:00.682Z,12.00
2023-04-16T10:34:52.450Z,12.17
2023-04-16T10:35:48.273Z,12.23
2023-04-16T10:36:55.309Z,12.25
2023-04-16T10:37:47.510Z,12.30
2023-04-16T10:38:47.678Z,12.30
2023-04-16T10:39:39.070Z,12.32
2023-04-16T10:40:30.620Z,12.29
2023-04-16T10:41:22.601Z,12.24
2023-04-16T10:42:14.138Z,12.18
2023-04-16T10:43:06.886Z,12.06
2023-04-16T10:44:09.619Z,11.98
2023-04-16T10:45:01.480Z,11.84
2023-04-16T10:45:53.813Z,11.83
2023-04-16T10:46:51.540Z,11.83
2023-04-16T10:47:43.059Z,11.85
2023-04-16T10:48:48.725Z,11.93
2023-04-16T10:49:42.663Z,12.12
2023-04-16T10:50:35.949Z,12.19
2023-04-16T10:51:33.427Z,12.23
2023-04-16T10:52:25.450Z,12.23
2023-04-16T10:53:23.192Z,12.23
2023-04-16T10:54:14.797Z,12.31
2023-04-16T10:55:07.160Z,12.32
2023-04-16T10:56:05.020Z,12.47
2023-04-16T10:56:59.060Z,12.60
2023-04-16T10:57:50.984Z,12.70
2023-04-16T10:58:42.670Z,12.76
2023-04-16T10:59:36.907Z,12.77
2023-04-16T11:00:28.498Z,12.90
2023-04-16T11:01:31.300Z,13.10
2023-04-16T11:02:29.034Z,13.17
2023-04-16T11:03:21.149Z,13.16
2023-04-16T11:04:22.043Z,13.21
2023-04-16T11:05:14.064Z,13.19
2023-04-16T11:06:14.515Z,12.86
2023-04-16T11:07:07.673Z,12.98
2023-04-16T11:08:14.318Z,13.09
2023-04-16T11:09:05.764Z,13.12
2023-04-16T11:10:02.494Z,13.15
2023-04-16T11:10:58.474Z,13.24
2023-04-16T11:11:53.053Z,13.29
2023-04-16T11:12:47.414Z,13.48
2023-04-16T11:13:43.740Z,13.54
2023-04-16T11:14:38.188Z,13.58
2023-04-16T11:15:31.370Z,13.59
2023-04-16T11:16:25.899Z,13.65
2023-04-16T11:17:19.227Z,13.58
2023-04-16T11:18:10.915Z,13.69
2023-04-16T11:19:04.798Z,13.68
2023-04-16T11:19:56.525Z,13.71
2023-04-16T11:20:48.105Z,13.73
2023-04-16T11:21:39.778Z,13.52
2023-04-16T11:22:31.346Z,13.53
2023-04-16T11:23:22.957Z,13.38
2023-04-16T11:24:14.419Z,13.36
2023-04-16T11:25:06.488Z,13.32
2023-04-16T11:26:00.850Z,13.18
2023-04-16T11:26:52.854Z,13.09
2023-04-16T11:27:44.352Z,13.04
2023-04-16T11:28:35.948Z,12.98
2023-04-16T11:29:27.473Z,13.02
2023-04-16T11:30:33.775Z,13.16
2023-04-16T11:31:27.412Z,13.21
2023-04-16T11:32:24.870Z,13.23
2023-04-16T11:33:16.826Z,13.29
2023-04-16T11:34:08.592Z,13.31
2023-04-16T11:35:04.360Z,13.25
2023-04-16T11:36:01.678Z,13.28
2023-04-16T11:36:53.141Z,13.25
2023-04-16T11:37:46.127Z,13.09
2023-04-16T11:38:41.208Z,13.05
2023-04-16T11:39:47.022Z,12.96
2023-04-16T11:40:38.564Z,13.02
2023-04-16T11:41:30.430Z,13.13
2023-04-16T11:42:23.179Z,13.20
2023-04-16T11:43:16.407Z,13.26
2023-04-16T11:44:25.372Z,13.25
2023-04-16T11:45:19.184Z,13.17
2023-04-16T11:46:24.125Z,13.18
2023-04-16T11:47:18.200Z,13.17
2023-04-16T11:48:11.197Z,13.25
2023-04-16T11:49:04.373Z,13.27
2023-04-16T11:49:56.523Z,13.31